Time;durP1;ratioP1;P1;durP2;ratioP2;P2;SDS_P1;SDS_P2;PMS_P1;PMS_P2;Temp;Humidity;BMP_temperature;BMP_pressure;BME280_temperature;BME280_humidity;BME280_pressure;Samples;Min_cycle;Max_cycle;Signal;HPM_P1;HPM_P2
2023/02/02 00:04:31;;;;;;;19.70;2.95;;;;;;;3.05;100.00;99565.08;5216382;55;1136816;-67
2023/02/02 00:09:37;;;;;;;18.07;3.67;;;;;;;3.06;100.00;99564.12;5195505;55;1136620;-70
2023/02/02 00:14:44;;;;;;;19.53;4.07;;;;;;;3.10;100.00;99557.78;5195172;55;1136880;-69
2023/02/02 00:19:51;;;;;;;20.33;3.00;;;;;;;3.10;100.00;99557.78;5215972;55;1136686;-71
2023/02/02 00:24:58;;;;;;;22.33;3.27;;;;;;;3.12;100.00;99549.38;5246007;54;1136788;-69
2023/02/02 00:30:05;;;;;;;15.23;2.97;;;;;;;3.14;100.00;99550.13;5285835;54;1136673;-68
2023/02/02 00:35:11;;;;;;;14.85;3.02;;;;;;;3.17;100.00;99552.09;5308788;54;1136610;-70
2023/02/02 00:40:17;;;;;;;34.03;4.37;;;;;;;3.18;100.00;99539.87;5269388;54;1136841;-70
2023/02/02 00:45:24;;;;;;;12.20;2.63;;;;;;;3.21;100.00;99533.12;5286046;54;1136632;-70
2023/02/02 00:50:30;;;;;;;13.60;2.57;;;;;;;3.24;100.00;99538.63;5214800;54;1136613;-66
2023/02/02 00:55:36;;;;;;;6.00;1.80;;;;;;;3.22;100.00;99530.04;5109228;55;1136596;-70
2023/02/02 01:00:42;;;;;;;18.03;2.33;;;;;;;3.18;100.00;99534.17;5109558;55;1134639;-67
2023/02/02 01:05:50;;;;;;;16.43;2.77;;;;;;;3.16;100.00;99515.14;5129125;55;1136566;-67
2023/02/02 01:10:55;;;;;;;16.40;3.03;;;;;;;3.16;100.00;99515.14;5109133;55;1136649;-71
2023/02/02 01:16:04;;;;;;;11.87;2.77;;;;;;;3.15;100.00;99508.23;5095557;55;1136755;-69
2023/02/02 01:21:13;;;;;;;21.80;4.03;;;;;;;3.16;100.00;99509.08;5126184;54;1136829;-67
2023/02/02 01:26:19;;;;;;;8.45;2.20;;;;;;;3.19;100.00;99485.38;5219074;54;1136677;-67
2023/02/02 01:31:25;;;;;;;18.20;2.83;;;;;;;3.22;100.00;99473.40;5098753;56;1134703;-66
2023/02/02 01:36:31;;;;;;;20.03;3.53;;;;;;;3.23;100.00;99470.31;5307296;54;1136812;-68
2023/02/02 01:41:36;;;;;;;23.70;3.10;;;;;;;3.24;100.00;99457.63;5097927;56;1136798;-67
2023/02/02 01:46:42;;;;;;;17.27;3.30;;;;;;;3.24;100.00;99456.32;5273170;54;1136684;-71
2023/02/02 01:51:52;;;;;;;10.07;2.93;;;;;;;3.24;100.00;99449.32;5228794;54;1136869;-67
2023/02/02 01:57:18;;;;;;;18.07;2.27;;;;;;;3.23;100.00;99440.27;5194773;55;1136623;-69
2023/02/02 02:02:27;;;;;;;11.38;2.20;;;;;;;3.28;100.00;99432.98;5195731;55;1137087;-66
2023/02/02 02:07:33;;;;;;;23.53;3.23;;;;;;;3.29;100.00;99425.52;5172086;55;1136727;-68
2023/02/02 02:12:38;;;;;;;16.57;2.97;;;;;;;3.31;100.00;99415.80;5215677;55;1136842;-69
2023/02/02 02:18:05;;;;;;;17.03;1.67;;;;;;;3.31;100.00;99405.35;5183801;55;1136582;-68
2023/02/02 02:29:46;;;;;;;14.03;2.50;;;;;;;3.28;100.00;99378.95;5183880;55;1134546;-68
2023/02/02 02:35:12;;;;;;;7.07;1.40;;;;;;;3.23;100.00;99374.48;5183385;55;1136606;-70
2023/02/02 02:40:31;;;;;;;8.48;2.42;;;;;;;3.19;100.00;99365.20;5178206;55;1134674;-68
2023/02/02 02:45:39;;;;;;;10.10;1.67;;;;;;;3.12;100.00;99356.07;5207805;55;1134612;-68
2023/02/02 02:50:46;;;;;;;11.80;2.07;;;;;;;2.99;100.00;99342.98;5133988;55;1136704;-68
2023/02/02 02:56:21;;;;;;;5.63;1.80;;;;;;;2.89;100.00;99324.94;5098397;55;1137031;-67
2023/02/02 03:01:35;;;;;;;8.43;1.52;;;;;;;2.76;100.00;99320.95;5098160;55;1134888;-71
2023/02/02 03:06:54;;;;;;;6.23;1.27;;;;;;;2.60;100.00;99298.08;5122361;55;1134763;-69
2023/02/02 03:12:01;;;;;;;3.97;0.90;;;;;;;2.47;100.00;99288.91;5107043;55;1134910;-69
2023/02/02 03:17:07;;;;;;;7.00;1.20;;;;;;;2.34;100.00;99287.18;5184315;55;1206799;-68
2023/02/02 03:22:14;;;;;;;9.62;2.70;;;;;;;2.19;100.00;99279.02;5226347;54;1134608;-69
2023/02/02 03:27:19;;;;;;;8.03;2.00;;;;;;;2.13;100.00;99281.56;5232843;54;1134710;-71
2023/02/02 03:32:26;;;;;;;8.40;1.37;;;;;;;2.13;100.00;99262.00;5046971;56;1134737;-69
2023/02/02 03:37:31;;;;;;;11.60;1.00;;;;;;;2.16;100.00;99250.52;5058229;56;1134549;-68
2023/02/02 03:42:37;;;;;;;5.13;1.30;;;;;;;2.18;100.00;99242.97;5195058;55;1136561;-71
2023/02/02 03:47:45;;;;;;;3.67;0.97;;;;;;;2.26;100.00;99235.50;5164239;55;1134811;-68
2023/02/02 03:52:51;;;;;;;7.00;2.20;;;;;;;2.31;100.00;99243.86;5118840;56;1134689;-69
2023/02/02 03:57:57;;;;;;;9.53;1.33;;;;;;;2.34;100.00;99228.48;5099183;55;1134603;-69
2023/02/02 04:03:03;;;;;;;11.57;1.40;;;;;;;2.34;100.00;99227.17;5056903;56;1134682;-66
2023/02/02 04:08:09;;;;;;;10.17;1.43;;;;;;;2.38;100.00;99227.35;5133434;55;1136738;-70
2023/02/02 04:13:15;;;;;;;4.97;0.80;;;;;;;2.43;100.00;99217.00;5101919;55;1136548;-71
2023/02/02 04:18:21;;;;;;;5.10;1.17;;;;;;;2.50;100.00;99224.41;5098633;55;1134775;-70
2023/02/02 04:23:30;;;;;;;1.77;1.13;;;;;;;2.57;100.00;99227.00;5099635;55;1134739;-69
2023/02/02 04:28:36;;;;;;;4.53;0.70;;;;;;;2.63;100.00;99218.75;5118892;56;1134659;-71
2023/02/02 04:33:41;;;;;;;7.33;0.93;;;;;;;2.68;100.00;99234.95;5099126;56;1134642;-70
2023/02/02 04:38:50;;;;;;;1.17;0.63;;;;;;;2.71;100.00;99222.55;5098937;56;1134706;-69
2023/02/02 04:43:56;;;;;;;6.17;0.97;;;;;;;2.74;100.00;99225.42;5118566;56;1134662;-67
2023/02/02 04:49:02;;;;;;;1.93;1.03;;;;;;;2.77;100.00;99242.17;5130992;55;1134655;-67
2023/02/02 04:54:08;;;;;;;0.77;0.50;;;;;;;2.78;100.00;99268.64;5183515;55;1242978;-71
2023/02/02 04:59:14;;;;;;;1.60;0.70;;;;;;;2.79;100.00;99275.55;5208381;55;1135269;-68
2023/02/02 05:04:20;;;;;;;0.47;0.47;;;;;;;2.82;100.00;99280.57;5167214;54;1253152;-69
2023/02/02 05:09:26;;;;;;;1.27;0.63;;;;;;;2.85;100.00;99288.21;5126152;55;1253635;-69
2023/02/02 05:14:32;;;;;;;1.62;0.42;;;;;;;2.89;100.00;99305.36;5119279;56;1246430;-69
2023/02/02 05:19:37;;;;;;;0.63;0.57;;;;;;;2.92;100.00;99326.02;5116250;56;1249382;-68
2023/02/02 05:24:43;;;;;;;1.03;0.50;;;;;;;2.93;100.00;99329.00;5116010;56;1250561;-71
2023/02/02 05:29:49;;;;;;;0.83;0.50;;;;;;;2.93;100.00;99334.23;5050249;57;1252623;-70
2023/02/02 05:34:55;;;;;;;0.87;0.63;;;;;;;2.94;100.00;99355.95;5115850;56;1252479;-70
2023/02/02 05:40:00;;;;;;;1.90;1.23;;;;;;;2.93;100.00;99373.86;5115938;56;1251700;-67
2023/02/02 05:45:07;;;;;;;3.10;1.40;;;;;;;2.92;100.00;99381.33;5149658;55;1134650;-68
2023/02/02 05:50:13;;;;;;;0.90;0.90;;;;;;;2.91;100.00;99386.18;5191143;55;1246331;-68
2023/02/02 05:55:19;;;;;;;2.77;0.70;;;;;;;2.89;100.00;99402.44;5181018;55;1248870;-67
2023/02/02 06:00:25;;;;;;;0.80;0.50;;;;;;;2.85;100.00;99408.32;5140224;55;1134732;-67
2023/02/02 06:05:30;;;;;;;0.60;0.60;;;;;;;2.85;100.00;99433.12;5116807;56;1134716;-71
2023/02/02 06:10:40;;;;;;;0.63;0.63;;;;;;;2.86;100.00;99464.00;5095986;56;1134639;-65
2023/02/02 06:15:46;;;;;;;0.53;0.53;;;;;;;2.85;100.00;99472.76;5096089;56;1134660;-70
2023/02/02 06:21:00;;;;;;;0.70;0.70;;;;;;;2.86;100.00;99489.64;5071814;56;1134468;-68
2023/02/02 06:26:07;;;;;;;6.63;0.63;;;;;;;2.88;100.00;99507.36;5122419;56;1134627;-70
2023/02/02 06:31:12;;;;;;;1.63;1.07;;;;;;;2.89;100.00;99527.78;5171905;56;1134580;-69
2023/02/02 06:36:18;;;;;;;2.00;0.90;;;;;;;2.90;100.00;99533.38;5177964;55;1134735;-70
2023/02/02 06:41:25;;;;;;;3.40;2.20;;;;;;;2.91;100.00;99546.78;5197462;55;1195284;-66
2023/02/02 06:46:31;;;;;;;3.83;0.72;;;;;;;2.91;100.00;99567.67;5181768;55;1174040;-69
2023/02/02 06:51:36;;;;;;;4.60;2.27;;;;;;;2.89;100.00;99585.23;5127947;55;1134680;-70
2023/02/02 06:56:42;;;;;;;13.03;10.07;;;;;;;2.89;100.00;99591.77;5029250;57;1134843;-72
2023/02/02 07:01:50;;;;;;;20.13;11.43;;;;;;;2.90;100.00;99609.12;5041680;56;1138944;-71
2023/02/02 07:06:56;;;;;;;6.40;4.77;;;;;;;2.90;100.00;99628.23;5116557;56;1138695;-72
2023/02/02 07:12:01;;;;;;;7.93;6.13;;;;;;;2.92;100.00;99642.02;5072011;55;1134769;-68
2023/02/02 07:17:07;;;;;;;16.30;9.60;;;;;;;2.94;100.00;99645.38;5009505;56;1134663;-69
2023/02/02 07:22:14;;;;;;;9.37;5.00;;;;;;;2.95;100.00;99662.73;5010343;57;1136651;-68
2023/02/02 07:27:20;;;;;;;248.63;109.90;;;;;;;2.95;100.00;99662.73;5063796;55;1134846;-71
2023/02/02 07:32:26;;;;;;;40.70;25.57;;;;;;;2.99;100.00;99690.82;5101896;56;1143051;-69
2023/02/02 07:37:32;;;;;;;10.60;4.20;;;;;;;3.00;100.00;99701.64;4936238;57;1138703;-68
2023/02/02 07:42:37;;;;;;;7.10;3.50;;;;;;;3.00;100.00;99728.61;5081923;57;1136810;-69
2023/02/02 07:47:43;;;;;;;7.07;2.27;;;;;;;3.01;100.00;99732.06;4998799;56;1134611;-67
2023/02/02 07:52:49;;;;;;;7.23;3.47;;;;;;;3.00;100.00;99748.20;4999125;57;1134705;-66
2023/02/02 07:57:57;;;;;;;9.07;2.57;;;;;;;2.99;100.00;99757.42;4947992;57;1134623;-67
2023/02/02 08:03:03;;;;;;;12.53;2.27;;;;;;;2.97;100.00;99774.48;5117848;56;1134568;-69
2023/02/02 08:08:09;;;;;;;17.97;3.33;;;;;;;2.93;100.00;99793.88;5097186;55;1136753;-68
2023/02/02 08:13:15;;;;;;;19.63;6.93;;;;;;;2.93;100.00;99809.54;5122568;55;1136671;-67
2023/02/02 08:18:21;;;;;;;11.45;3.90;;;;;;;2.94;100.00;99819.06;5125845;55;1137040;-69
2023/02/02 08:23:27;;;;;;;25.07;3.93;;;;;;;2.94;100.00;99834.73;5132551;55;1136927;-67
2023/02/02 08:28:35;;;;;;;3.77;1.50;;;;;;;2.93;100.00;99842.66;5129956;55;1136951;-69
2023/02/02 08:33:40;;;;;;;5.00;1.83;;;;;;;2.91;100.00;99857.10;5124830;55;1134827;-67
2023/02/02 08:38:46;;;;;;;3.27;1.43;;;;;;;2.90;100.00;99869.81;5140869;55;1134514;-67
2023/02/02 08:43:52;;;;;;;3.27;2.13;;;;;;;2.87;100.00;99892.64;5134492;55;1134796;-68
2023/02/02 08:48:59;;;;;;;4.47;2.10;;;;;;;2.87;100.00;99907.84;5106658;55;1134608;-70
2023/02/02 08:54:05;;;;;;;4.30;2.00;;;;;;;2.88;100.00;99917.37;5151154;55;1134742;-68
2023/02/02 08:59:10;;;;;;;3.33;2.50;;;;;;;2.90;100.00;99927.27;5104096;55;1134782;-67
2023/02/02 09:04:16;;;;;;;1.97;1.60;;;;;;;2.94;100.00;99930.53;5096133;55;1134804;-66
2023/02/02 09:09:22;;;;;;;6.60;3.10;;;;;;;2.94;100.00;99944.43;5096287;55;1134611;-70
2023/02/02 09:14:28;;;;;;;3.73;1.80;;;;;;;2.95;100.00;99952.65;5115964;55;1134672;-67
2023/02/02 09:19:33;;;;;;;1.82;1.40;;;;;;;2.99;100.00;99966.39;5194888;55;1134557;-66
2023/02/02 09:24:39;;;;;;;4.50;1.75;;;;;;;3.00;100.00;99976.75;5095399;55;1134860;-67
2023/02/02 09:29:46;;;;;;;4.63;2.87;;;;;;;3.00;100.00;99995.04;5110910;56;1134853;-69
2023/02/02 09:34:51;;;;;;;3.33;1.70;;;;;;;3.03;100.00;100008.41;5091295;56;1134672;-68
2023/02/02 09:39:57;;;;;;;1.10;0.93;;;;;;;3.05;100.00;100017.00;5090958;56;1136898;-69
2023/02/02 09:45:19;;;;;;;4.27;2.10;;;;;;;3.08;100.00;100029.88;5112899;56;1136690;-70
2023/02/02 09:50:49;;;;;;;3.80;1.80;;;;;;;3.08;100.00;100042.47;5156644;55;1136555;-68
2023/02/02 09:55:59;;;;;;;5.40;1.43;;;;;;;3.04;100.00;100046.20;5198146;55;1136591;-68
2023/02/02 10:01:35;;;;;;;6.27;2.53;;;;;;;3.05;100.00;100061.41;4984474;57;1136886;-66
2023/02/02 10:06:45;;;;;;;9.27;2.97;;;;;;;3.06;100.00;100068.30;4930638;58;1136747;-67
2023/02/02 10:12:29;;;;;;;9.67;2.70;;;;;;;3.05;100.00;100072.70;4978715;57;1136854;-69
2023/02/02 10:17:54;;;;;;;4.93;2.30;;;;;;;3.07;100.00;100087.81;4974700;57;1136824;-68
2023/02/02 10:23:04;;;;;;;6.57;2.83;;;;;;;3.12;100.00;100104.09;4976912;57;1136589;-70
2023/02/02 10:28:15;;;;;;;5.53;1.77;;;;;;;3.12;100.00;100109.78;4980305;57;1136561;-69
2023/02/02 10:33:37;;;;;;;8.20;1.92;;;;;;;3.09;100.00;100117.31;5033080;56;1136751;-70
2023/02/02 10:38:53;;;;;;;7.23;3.20;;;;;;;3.00;100.00;100126.95;4976043;57;1136735;-69
2023/02/02 10:44:33;;;;;;;10.33;1.90;;;;;;;2.97;100.00;100131.49;5053722;56;1136656;-66
2023/02/02 10:49:41;;;;;;;4.83;2.00;;;;;;;3.00;100.00;100133.95;4742637;60;1138881;-67
2023/02/02 10:55:24;;;;;;;7.12;1.85;;;;;;;3.07;100.00;100156.20;4819930;59;1136869;-66
2023/02/02 11:00:37;;;;;;;5.15;2.12;;;;;;;3.12;100.00;100158.12;4820416;58;1136854;-67
2023/02/02 11:11:29;;;;;;;3.80;1.80;;;;;;;3.15;100.00;100192.78;4820110;57;1136876;-71
2023/02/02 11:16:39;;;;;;;4.37;2.17;;;;;;;3.17;100.00;100198.77;4815230;59;1136895;-70
2023/02/02 11:21:57;;;;;;;9.47;2.57;;;;;;;3.20;100.00;100200.84;4819081;59;1136720;-66
2023/02/02 11:27:19;;;;;;;5.77;1.90;;;;;;;3.26;100.00;100214.88;5011349;56;1136943;-67
2023/02/02 11:32:33;;;;;;;3.33;2.03;;;;;;;3.29;100.00;100211.65;5261483;55;1136652;-71
2023/02/02 11:38:00;;;;;;;2.80;1.20;;;;;;;3.48;100.00;100209.76;5031640;56;1136932;-70
2023/02/02 11:43:28;;;;;;;4.17;2.03;;;;;;;3.61;100.00;100224.78;5106970;55;1136658;-71
2023/02/02 11:48:37;;;;;;;1.20;1.10;;;;;;;3.65;100.00;100224.55;5150056;56;1136827;-71
2023/02/02 11:53:47;;;;;;;7.28;2.00;;;;;;;3.62;100.00;100247.39;5127397;55;1136754;-70
2023/02/02 11:58:57;;;;;;;6.30;1.70;;;;;;;3.47;100.00;100266.05;5191616;55;1136800;-69
2023/02/02 12:04:19;;;;;;;6.77;1.30;;;;;;;3.47;100.00;100266.05;5180624;55;1136832;-69
2023/02/02 12:09:27;;;;;;;4.10;1.40;;;;;;;3.41;100.00;100275.50;5185531;55;1136753;-67
2023/02/02 12:14:49;;;;;;;6.25;2.02;;;;;;;3.38;100.00;100275.66;5185494;55;1136733;-70
2023/02/02 12:20:24;;;;;;;7.80;3.40;;;;;;;3.34;100.00;100286.75;5150808;55;1136734;-66
2023/02/02 12:26:01;;;;;;;6.30;1.60;;;;;;;3.37;100.00;100283.95;4967289;57;1136803;-70
2023/02/02 12:31:38;;;;;;;4.00;2.30;;;;;;;3.35;100.00;100287.14;5029003;57;1136672;-67
2023/02/02 12:37:03;;;;;;;9.40;4.37;;;;;;;3.38;100.00;100292.64;5056619;57;1136840;-70
2023/02/02 12:42:26;;;;;;;13.13;7.60;;;;;;;3.41;100.00;100310.33;5082335;57;1136897;-67
2023/02/02 12:47:45;;;;;;;180.15;50.52;;;;;;;3.45;100.00;100310.56;4999085;57;1138858;-68
2023/02/02 12:53:15;;;;;;;104.90;26.80;;;;;;;3.67;100.00;100315.97;4912482;58;1143255;-70
2023/02/02 12:58:40;;;;;;;6.58;4.10;;;;;;;4.24;100.00;100328.58;4913663;58;1143093;-72
2023/02/02 13:03:59;;;;;;;32.37;14.57;;;;;;;4.19;100.00;100334.98;4893258;58;1136755;-67
2023/02/02 13:09:14;;;;;;;7.77;3.53;;;;;;;3.99;100.00;100341.27;4765291;60;1141023;-69
2023/02/02 13:14:29;;;;;;;27.90;13.00;;;;;;;3.83;100.00;100346.94;4976867;57;1137055;-69
2023/02/02 13:19:42;;;;;;;145.55;29.25;;;;;;;3.78;100.00;100345.89;4949806;57;1140962;-69
2023/02/02 13:24:51;;;;;;;46.90;15.73;;;;;;;3.74;100.00;100362.66;4979660;56;1143174;-69
2023/02/02 13:30:02;;;;;;;2.00;1.53;;;;;;;3.76;100.00;100376.97;5065302;56;1140899;-69
2023/02/02 13:35:27;;;;;;;1.40;1.17;;;;;;;3.62;100.00;100385.53;5088698;55;1136714;-69
2023/02/02 13:40:41;;;;;;;3.63;2.20;;;;;;;3.49;100.00;100384.00;5116652;55;1136812;-71
2023/02/02 13:46:27;;;;;;;13.70;7.93;;;;;;;3.49;100.00;100408.00;5136429;55;1136703;-68
2023/02/02 13:51:57;;;;;;;22.50;6.57;;;;;;;3.43;100.00;100420.05;4998547;55;1138677;-69
2023/02/02 13:57:39;;;;;;;8.80;4.30;;;;;;;3.38;100.00;100418.97;4950158;57;1138620;-70
2023/02/02 14:02:56;;;;;;;13.57;5.97;;;;;;;3.36;100.00;100432.56;4871491;57;1136632;-68
2023/02/02 14:08:21;;;;;;;73.30;31.40;;;;;;;3.28;100.00;100456.09;5123593;55;1139040;-69
2023/02/02 14:19:18;;;;;;;280.53;131.70;;;;;;;2.81;100.00;100510.12;5108150;56;1143121;-65
2023/02/02 14:24:37;;;;;;;133.60;44.27;;;;;;;2.55;100.00;100519.14;5096023;54;1144939;-69
2023/02/02 14:29:55;;;;;;;64.97;32.70;;;;;;;2.43;100.00;100530.14;5306293;54;1142854;-69
2023/02/02 14:35:14;;;;;;;84.55;30.25;;;;;;;2.40;100.00;100542.86;5285561;54;1141214;-71
2023/02/02 14:40:49;;;;;;;155.93;64.80;;;;;;;2.39;100.00;100571.17;5285606;54;1140732;-68
2023/02/02 14:46:16;;;;;;;27.87;18.30;;;;;;;2.41;100.00;100581.55;5210394;54;1142793;-69
2023/02/02 14:51:25;;;;;;;15.38;9.18;;;;;;;2.42;100.00;100601.06;5004182;57;1140981;-68
2023/02/02 14:56:50;;;;;;;35.55;13.28;;;;;;;2.40;100.00;100629.45;5076716;56;1138928;-68
2023/02/02 15:02:22;;;;;;;59.90;25.00;;;;;;;2.22;100.00;100631.05;5009783;57;1140857;-69
2023/02/02 15:07:32;;;;;;;15.77;8.00;;;;;;;2.04;100.00;100650.06;5066600;56;1141102;-70
2023/02/02 15:12:48;;;;;;;7.53;4.12;;;;;;;1.96;100.00;100664.73;4944926;58;1139025;-67
2023/02/02 15:18:06;;;;;;;13.83;7.20;;;;;;;1.87;100.00;100675.97;4967664;57;1136825;-70
2023/02/02 15:23:34;;;;;;;14.03;6.33;;;;;;;1.82;100.00;100676.63;4918347;57;1138936;-70
2023/02/02 15:29:03;;;;;;;14.58;4.58;;;;;;;1.80;100.00;100695.38;4886214;58;1138795;-66
2023/02/02 15:34:37;;;;;;;8.23;2.47;;;;;;;1.80;100.00;100706.67;4731096;60;1138778;-69
2023/02/02 15:39:47;;;;;;;12.98;4.80;;;;;;;1.78;100.00;100715.45;4911398;58;1136741;-70
2023/02/02 15:44:53;;;;;;;5.10;1.85;;;;;;;1.85;100.00;100729.94;4834071;59;1138900;-70
2023/02/02 15:49:59;;;;;;;4.00;2.70;;;;;;;1.87;100.00;100747.68;4827305;58;1136870;-67
2023/02/02 15:55:09;;;;;;;17.07;7.20;;;;;;;1.82;100.00;100757.46;4881828;58;1136951;-66
2023/02/02 16:00:41;;;;;;;13.30;5.73;;;;;;;1.79;100.00;100767.55;5000711;56;1138808;-70
2023/02/02 16:05:54;;;;;;;9.10;3.77;;;;;;;1.78;100.00;100780.64;5040960;57;1138815;-68
2023/02/02 16:11:13;;;;;;;18.53;8.83;;;;;;;1.74;100.00;100804.21;5087047;55;1136641;-69
2023/02/02 16:16:29;;;;;;;9.17;3.93;;;;;;;1.74;100.00;100826.38;5087947;55;1139126;-68
2023/02/02 16:21:44;;;;;;;17.10;6.30;;;;;;;1.77;100.00;100841.06;5116312;55;1136729;-69
2023/02/02 16:26:52;;;;;;;13.33;5.03;;;;;;;1.73;100.00;100851.20;5116073;56;1138963;-67
2023/02/02 16:31:59;;;;;;;12.57;6.07;;;;;;;1.66;100.00;100867.98;5192765;55;1138883;-69
2023/02/02 16:37:14;;;;;;;37.43;11.50;;;;;;;1.59;100.00;100876.91;5223891;55;1138585;-71
2023/02/02 16:42:32;;;;;;;15.43;5.90;;;;;;;1.57;100.00;100887.39;5131094;55;1140816;-67
2023/02/02 16:47:39;;;;;;;19.47;7.60;;;;;;;1.53;100.00;100896.69;5130955;55;1138933;-71
2023/02/02 16:53:03;;;;;;;28.37;9.90;;;;;;;1.50;100.00;100904.16;5150871;55;1138769;-70
2023/02/02 16:58:13;;;;;;;9.57;4.80;;;;;;;1.49;100.00;100912.03;4888965;57;1138806;-68
2023/02/02 17:03:20;;;;;;;20.43;9.30;;;;;;;1.50;100.00;100922.85;5098806;56;1136872;-69
2023/02/02 17:08:33;;;;;;;11.43;5.33;;;;;;;1.50;100.00;100934.12;5032033;56;1138923;-71
2023/02/02 17:13:41;;;;;;;11.57;4.72;;;;;;;1.48;100.00;100950.27;5117967;56;1139225;-69
2023/02/02 17:18:47;;;;;;;9.27;4.17;;;;;;;1.49;100.00;100968.91;5062782;56;1138846;-70
2023/02/02 17:23:53;;;;;;;17.67;5.47;;;;;;;1.48;100.00;100979.39;5115119;56;1136816;-68
2023/02/02 17:28:59;;;;;;;10.83;4.10;;;;;;;1.45;100.00;100999.03;5145775;56;1138872;-71
2023/02/02 17:34:14;;;;;;;9.47;4.67;;;;;;;1.46;100.00;101012.02;5127877;56;1138780;-69
2023/02/02 17:39:20;;;;;;;5.40;2.70;;;;;;;1.48;100.00;101031.06;5128393;56;1136903;-70
2023/02/02 17:44:26;;;;;;;9.93;4.42;;;;;;;1.47;100.00;101037.63;5128546;56;1136864;-71
2023/02/02 17:49:32;;;;;;;11.50;3.80;;;;;;;1.43;100.00;101058.16;5125808;56;1145501;-67
2023/02/02 17:54:38;;;;;;;13.93;4.62;;;;;;;1.37;100.00;101074.41;5030956;57;1138850;-66
2023/02/02 17:59:43;;;;;;;10.68;3.92;;;;;;;1.36;100.00;101089.65;5049511;56;1138851;-68
2023/02/02 18:04:49;;;;;;;5.77;2.60;;;;;;;1.37;100.00;101104.83;5126888;56;1138767;-69
2023/02/02 18:09:55;;;;;;;5.85;2.55;;;;;;;1.37;100.00;101110.91;5039992;56;1136814;-68
2023/02/02 18:15:02;;;;;;;12.20;4.23;;;;;;;1.40;100.00;101117.74;5029799;56;1136906;-69
2023/02/02 18:20:09;;;;;;;8.97;4.07;;;;;;;1.34;100.00;101121.86;4981311;56;1138786;-71
2023/02/02 18:25:15;;;;;;;14.33;5.67;;;;;;;1.26;100.00;101125.98;5041899;56;1136651;-70
2023/02/02 18:30:21;;;;;;;16.50;5.30;;;;;;;1.24;100.00;101121.70;5098692;56;1138814;-69
2023/02/02 18:35:27;;;;;;;16.27;5.30;;;;;;;1.21;100.00;101132.24;5099065;55;1138916;-70
2023/02/02 18:40:32;;;;;;;11.47;3.50;;;;;;;1.13;100.00;101130.30;5118971;55;1139174;-70
2023/02/02 18:45:38;;;;;;;16.67;6.83;;;;;;;1.07;100.00;101133.92;5099122;55;1138911;-68
2023/02/02 18:50:44;;;;;;;14.00;5.97;;;;;;;0.96;100.00;101145.09;5098875;55;1139011;-68
2023/02/02 18:55:49;;;;;;;12.67;5.33;;;;;;;0.86;100.00;101156.67;5119138;55;1138727;-68
2023/02/02 19:00:55;;;;;;;12.33;5.53;;;;;;;0.82;100.00;101157.20;5098915;55;1138728;-68
2023/02/02 19:11:28;;;;;;;22.07;6.93;;;;;;;0.71;100.00;101178.77;5131191;55;1138947;-70
2023/02/02 19:16:35;;;;;;;18.40;7.80;;;;;;;0.63;100.00;101189.37;5204085;55;1138922;-67
2023/02/02 19:21:41;;;;;;;12.75;5.85;;;;;;;0.62;100.00;101186.36;5182781;55;1138800;-67
2023/02/02 19:26:49;;;;;;;11.97;4.40;;;;;;;0.65;100.00;101184.98;5156585;54;1138742;-68
2023/02/02 19:32:02;;;;;;;9.63;5.00;;;;;;;0.65;100.00;101198.45;5292718;54;1138793;-68
2023/02/02 19:37:31;;;;;;;12.10;5.70;;;;;;;0.63;100.00;101207.59;5084098;57;1136553;-68
2023/02/02 19:42:47;;;;;;;16.12;7.22;;;;;;;0.60;100.00;101209.00;5267679;54;1138822;-70
2023/02/02 19:47:56;;;;;;;12.37;4.17;;;;;;;0.61;100.00;101209.38;5251416;54;1138741;-70
2023/02/02 19:53:27;;;;;;;7.27;2.63;;;;;;;0.55;100.00;101200.89;5020061;56;1138886;-68
2023/02/02 19:58:36;;;;;;;9.87;4.20;;;;;;;0.45;100.00;101212.43;5196937;54;1136750;-67
2023/02/02 20:03:45;;;;;;;9.83;3.43;;;;;;;0.30;100.00;101219.72;5240053;54;1136746;-70
2023/02/02 20:08:50;;;;;;;10.27;4.37;;;;;;;0.18;100.00;101225.20;5127874;55;1136757;-68
2023/02/02 20:13:56;;;;;;;14.30;5.17;;;;;;;0.09;100.00;101229.77;5118668;55;1138802;-68
2023/02/02 20:19:03;;;;;;;9.45;4.55;;;;;;;-0.04;100.00;101233.10;5152593;55;1138711;-70
2023/02/02 20:24:18;;;;;;;12.67;5.17;;;;;;;-0.07;100.00;101243.12;5209393;55;1138847;-66
2023/02/02 20:29:34;;;;;;;8.87;4.27;;;;;;;-0.08;100.00;101236.65;5114871;55;1140809;-71
2023/02/02 20:34:43;;;;;;;6.00;3.10;;;;;;;-0.10;100.00;101254.02;5188508;55;1138706;-71
2023/02/02 20:40:02;;;;;;;8.30;3.03;;;;;;;-0.13;100.00;101265.34;5179454;55;1138732;-69
2023/02/02 20:45:08;;;;;;;14.13;4.40;;;;;;;-0.11;100.00;101277.01;5129713;55;1138741;-68
2023/02/02 20:50:17;;;;;;;13.50;3.43;;;;;;;-0.08;100.00;101272.61;5140076;55;1140834;-68
2023/02/02 20:55:23;;;;;;;6.07;2.90;;;;;;;-0.09;100.00;101293.44;5124950;55;1140795;-67
2023/02/02 21:00:29;;;;;;;8.60;3.63;;;;;;;-0.12;100.00;101293.49;5201695;55;1138760;-68
2023/02/02 21:05:35;;;;;;;7.60;3.73;;;;;;;-0.14;100.00;101286.17;5114957;55;1178825;-71
2023/02/02 21:10:40;;;;;;;5.03;2.43;;;;;;;-0.14;100.00;101288.77;5130979;55;1138697;-70
2023/02/02 21:15:47;;;;;;;9.50;2.58;;;;;;;-0.15;100.00;101297.45;5115805;56;1138672;-68
2023/02/02 21:20:52;;;;;;;20.83;9.77;;;;;;;-0.19;100.00;101303.63;5126612;55;1138726;-71
2023/02/02 21:25:58;;;;;;;13.63;7.27;;;;;;;-0.22;100.00;101308.44;5178967;55;1140818;-70
2023/02/02 21:31:04;;;;;;;20.20;6.03;;;;;;;-0.24;100.00;101306.75;5187988;55;1141101;-69
2023/02/02 21:36:37;;;;;;;13.77;4.47;;;;;;;-0.27;100.00;101301.17;5148143;55;1140901;-69
2023/02/02 21:41:44;;;;;;;7.67;3.40;;;;;;;-0.29;100.00;101299.05;5125762;55;1140857;-70
2023/02/02 21:46:52;;;;;;;6.67;3.23;;;;;;;-0.31;100.00;101295.65;5192520;55;1138715;-69
2023/02/02 21:52:02;;;;;;;10.37;3.60;;;;;;;-0.34;100.00;101300.05;5197320;55;1138912;-70
2023/02/02 21:57:24;;;;;;;12.77;5.27;;;;;;;-0.41;100.00;101304.05;5154941;55;1141156;-69
2023/02/02 22:02:41;;;;;;;9.17;3.70;;;;;;;-0.49;100.00;101299.47;5149709;55;1140829;-67
2023/02/02 22:07:52;;;;;;;11.25;4.70;;;;;;;-0.53;100.00;101303.45;5098522;55;1138770;-69
2023/02/02 22:12:58;;;;;;;10.83;4.17;;;;;;;-0.55;100.00;101298.27;5128998;55;1141034;-69
2023/02/02 22:18:21;;;;;;;8.90;4.13;;;;;;;-0.61;100.00;101285.87;5142956;55;1140853;-67
2023/02/02 22:23:30;;;;;;;11.53;4.70;;;;;;;-0.61;100.00;101289.29;5138249;55;1139231;-69
2023/02/02 22:28:40;;;;;;;7.50;3.83;;;;;;;-0.61;100.00;101292.36;5180424;55;1141124;-68
2023/02/02 22:33:46;;;;;;;53.97;14.73;;;;;;;-0.60;100.00;101289.70;5117940;55;1138783;-69
2023/02/02 22:38:51;;;;;;;124.30;36.85;;;;;;;-0.59;100.00;101305.70;5194306;54;1142939;-68
2023/02/02 22:43:57;;;;;;;65.70;16.37;;;;;;;-0.54;100.00;101305.63;5218885;54;1144998;-66
2023/02/02 22:49:03;;;;;;;29.83;10.43;;;;;;;-0.49;100.00;101305.96;5229972;54;1143043;-68
2023/02/02 22:59:12;;;;;;;15.23;6.10;;;;;;;-0.52;100.00;101327.24;5138856;54;47428;-66
2023/02/02 23:04:17;;;;;;;16.70;5.67;;;;;;;-0.60;100.00;101331.27;4938295;57;1137072;-65
2023/02/02 23:09:23;;;;;;;17.53;5.33;;;;;;;-0.60;100.00;101331.71;4795052;59;1140956;-67
2023/02/02 23:14:29;;;;;;;49.60;16.03;;;;;;;-0.66;100.00;101344.83;4772739;58;1141209;-66
2023/02/02 23:19:39;;;;;;;43.95;8.90;;;;;;;-0.78;100.00;101348.08;4827009;59;1143101;-69
2023/02/02 23:24:45;;;;;;;26.55;6.97;;;;;;;-0.88;100.00;101347.80;4814904;58;1141109;-71
2023/02/02 23:29:50;;;;;;;17.02;5.00;;;;;;;-0.90;100.00;101351.30;4835989;58;1140957;-69
2023/02/02 23:34:56;;;;;;;10.63;4.77;;;;;;;-0.94;100.00;101343.17;5012537;57;1141023;-67
2023/02/02 23:40:02;;;;;;;14.47;5.23;;;;;;;-0.91;100.00;101345.69;4848632;57;1141193;-69
2023/02/02 23:45:08;;;;;;;11.77;4.70;;;;;;;-0.92;100.00;101331.87;4869438;58;1141100;-68
2023/02/02 23:50:14;;;;;;;29.93;7.87;;;;;;;-0.93;100.00;101335.80;4892364;58;1140907;-69
2023/02/02 23:55:21;;;;;;;10.30;4.97;;;;;;;-0.93;100.00;101339.69;4742106;58;1141210;-68
